createdAt,value
2022-08-27T00:01:37.154Z,7.90
2022-08-27T00:04:00.130Z,6.70
2022-08-27T00:06:24.121Z,7.20
2022-08-27T00:08:47.427Z,6.70
2022-08-27T00:11:13.651Z,7.20
2022-08-27T00:13:36.869Z,7.00
2022-08-27T00:15:59.616Z,7.00
2022-08-27T00:18:23.084Z,6.60
2022-08-27T00:20:45.830Z,6.80
2022-08-27T00:23:09.092Z,6.80
2022-08-27T00:25:31.839Z,7.00
2022-08-27T00:27:54.586Z,7.10
2022-08-27T00:30:19.176Z,7.70
2022-08-27T00:32:42.785Z,7.30
2022-08-27T00:35:06.076Z,7.10
2022-08-27T00:37:28.857Z,7.20
2022-08-27T00:39:52.253Z,6.30
2022-08-27T00:42:15.134Z,6.80
2022-08-27T00:44:39.252Z,6.60
2022-08-27T00:47:04.963Z,6.80
2022-08-27T00:49:34.058Z,6.10
2022-08-27T00:52:01.760Z,7.00
2022-08-27T00:54:26.825Z,6.50
2022-08-27T00:56:52.630Z,6.30
2022-08-27T00:59:17.134Z,6.70
2022-08-27T01:01:59.988Z,6.50
2022-08-27T01:04:23.010Z,6.50
2022-08-27T01:06:45.851Z,7.30
2022-08-27T01:09:12.186Z,7.00
2022-08-27T01:11:38.311Z,7.20
2022-08-27T01:14:02.488Z,7.60
2022-08-27T01:16:29.232Z,7.20
2022-08-27T01:18:54.437Z,6.80
2022-08-27T01:21:26.296Z,6.90
2022-08-27T01:23:55.188Z,7.70
2022-08-27T01:26:18.367Z,7.40
2022-08-27T01:28:44.270Z,7.10
2022-08-27T01:31:08.416Z,7.00
2022-08-27T01:33:31.730Z,7.20
2022-08-27T01:35:57.118Z,7.60
2022-08-27T01:38:31.049Z,7.90
2022-08-27T01:40:54.491Z,7.30
2022-08-27T01:43:17.752Z,7.00
2022-08-27T01:45:45.038Z,6.90
2022-08-27T01:48:11.026Z,7.00
2022-08-27T01:50:38.895Z,7.00
2022-08-27T01:53:08.606Z,7.80
2022-08-27T01:55:31.337Z,7.00
2022-08-27T01:57:54.928Z,7.80
2022-08-27T02:00:19.788Z,7.00
2022-08-27T02:02:42.770Z,6.50
2022-08-27T02:05:06.029Z,7.50
2022-08-27T02:07:31.132Z,6.30
2022-08-27T02:09:53.981Z,7.40
2022-08-27T02:12:19.086Z,6.60
2022-08-27T02:14:41.934Z,7.00
2022-08-27T02:17:04.683Z,7.30
2022-08-27T02:19:28.045Z,7.20
2022-08-27T02:21:54.118Z,7.40
2022-08-27T02:24:16.818Z,7.00
2022-08-27T02:26:40.076Z,7.70
2022-08-27T02:29:02.822Z,7.20
2022-08-27T02:31:28.191Z,7.20
2022-08-27T02:33:53.540Z,7.30
2022-08-27T02:36:18.031Z,7.70
2022-08-27T02:38:41.082Z,7.10
2022-08-27T02:41:03.935Z,8.40
2022-08-27T02:43:26.783Z,6.30
2022-08-27T02:45:52.090Z,6.90
2022-08-27T02:48:15.044Z,7.40
2022-08-27T02:50:37.895Z,7.60
2022-08-27T02:53:04.143Z,7.20
2022-08-27T02:55:29.756Z,8.40
2022-08-27T02:57:52.587Z,8.00
2022-08-27T03:00:18.099Z,7.00
2022-08-27T03:02:43.252Z,7.60
2022-08-27T03:05:06.987Z,7.40
2022-08-27T03:07:29.723Z,7.30
2022-08-27T03:09:53.184Z,7.40
2022-08-27T03:12:18.488Z,8.00
2022-08-27T03:14:41.241Z,7.70
2022-08-27T03:17:22.930Z,7.50
2022-08-27T03:19:45.796Z,7.60
2022-08-27T03:22:10.884Z,7.20
2022-08-27T03:24:36.208Z,7.60
2022-08-27T03:27:00.067Z,7.90
2022-08-27T03:29:25.474Z,7.50
2022-08-27T03:31:48.631Z,7.80
2022-08-27T03:34:11.891Z,7.60
2022-08-27T03:36:34.535Z,7.40
2022-08-27T03:39:00.299Z,8.50
2022-08-27T03:41:39.933Z,7.10
2022-08-27T03:44:08.383Z,8.10
2022-08-27T03:46:31.387Z,7.50
2022-08-27T03:48:57.469Z,7.60
2022-08-27T03:51:21.537Z,7.10
2022-08-27T03:53:45.104Z,7.20
2022-08-27T03:56:08.818Z,8.00
2022-08-27T03:58:31.822Z,7.30
2022-08-27T04:00:54.677Z,7.60
2022-08-27T04:03:17.466Z,7.50
2022-08-27T04:05:40.933Z,8.00
2022-08-27T04:08:07.007Z,7.60
2022-08-27T04:10:32.898Z,7.10
2022-08-27T04:12:58.248Z,8.70
2022-08-27T04:15:21.912Z,7.50
2022-08-27T04:17:44.700Z,7.80
2022-08-27T04:20:33.976Z,7.60
2022-08-27T04:22:53.606Z,8.00
2022-08-27T04:25:16.753Z,8.00
2022-08-27T04:27:39.720Z,7.90
2022-08-27T04:30:04.102Z,7.90
2022-08-27T04:32:29.048Z,8.10
2022-08-27T04:34:56.253Z,7.80
2022-08-27T04:37:23.290Z,8.80
2022-08-27T04:39:50.119Z,8.10
2022-08-27T04:42:13.327Z,7.90
2022-08-27T04:44:36.975Z,7.30
2022-08-27T04:47:01.975Z,8.10
2022-08-27T04:49:25.481Z,7.80
2022-08-27T04:51:50.333Z,7.20
2022-08-27T04:54:13.184Z,7.60
2022-08-27T04:56:37.467Z,8.10
2022-08-27T04:59:01.648Z,7.90
2022-08-27T05:01:28.173Z,7.40
2022-08-27T05:03:51.237Z,8.50
2022-08-27T05:06:14.153Z,8.10
2022-08-27T05:08:36.940Z,7.60
2022-08-27T05:11:02.245Z,8.00
2022-08-27T05:13:25.198Z,8.00
2022-08-27T05:15:47.956Z,7.60
2022-08-27T05:18:13.379Z,8.50
2022-08-27T05:20:42.758Z,7.40
2022-08-27T05:23:05.923Z,7.90
2022-08-27T05:25:28.661Z,8.50
2022-08-27T05:27:51.516Z,8.20
2022-08-27T05:30:17.434Z,8.30
2022-08-27T05:32:40.285Z,7.70
2022-08-27T05:35:05.795Z,8.20
2022-08-27T05:37:28.856Z,7.80
2022-08-27T05:39:56.671Z,8.60
2022-08-27T05:42:20.107Z,8.60
2022-08-27T05:44:42.828Z,8.10
2022-08-27T05:47:08.339Z,7.50
2022-08-27T05:49:32.012Z,7.30
2022-08-27T05:51:54.758Z,7.90
2022-08-27T05:54:19.999Z,7.30
2022-08-27T05:56:43.530Z,8.10
2022-08-27T05:59:25.221Z,7.80
2022-08-27T06:01:52.677Z,7.00
2022-08-27T06:04:18.624Z,7.90
2022-08-27T06:06:42.781Z,7.30
2022-08-27T06:09:08.601Z,8.50
2022-08-27T06:11:31.656Z,7.60
2022-08-27T06:13:55.943Z,6.80
2022-08-27T06:16:19.725Z,8.20
2022-08-27T06:18:46.449Z,7.60
2022-08-27T06:21:12.682Z,7.80
2022-08-27T06:23:36.042Z,7.50
2022-08-27T06:26:01.253Z,7.40
2022-08-27T06:28:26.453Z,7.80
2022-08-27T06:30:49.640Z,7.80
2022-08-27T06:33:15.633Z,7.40
2022-08-27T06:35:38.380Z,6.90
2022-08-27T06:38:03.747Z,7.20
2022-08-27T06:40:29.448Z,6.80
2022-08-27T06:42:53.279Z,6.20
2022-08-27T06:45:16.127Z,6.80
2022-08-27T06:47:43.895Z,7.50
2022-08-27T06:50:09.205Z,6.60
2022-08-27T06:52:32.050Z,6.40
2022-08-27T06:54:54.901Z,7.30
2022-08-27T06:57:17.752Z,6.10
2022-08-27T06:59:40.504Z,6.00
2022-08-27T07:02:04.168Z,6.20
2022-08-27T07:04:32.572Z,6.30
2022-08-27T07:06:58.937Z,5.70
2022-08-27T07:09:23.296Z,6.20
2022-08-27T07:11:46.114Z,5.40
2022-08-27T07:14:08.968Z,5.70
2022-08-27T07:16:32.638Z,5.40
2022-08-27T07:18:57.225Z,5.50
2022-08-27T07:21:27.447Z,6.10
2022-08-27T07:23:52.039Z,5.30
2022-08-27T07:26:18.045Z,5.20
2022-08-27T07:28:41.525Z,5.30
2022-08-27T07:31:05.687Z,5.00
2022-08-27T07:33:28.683Z,5.00
2022-08-27T07:35:52.431Z,4.80
2022-08-27T07:38:17.535Z,4.40
2022-08-27T07:40:42.743Z,4.40
2022-08-27T07:43:25.763Z,4.80
2022-08-27T07:45:49.162Z,5.10
2022-08-27T07:48:12.146Z,5.00
2022-08-27T07:50:35.893Z,5.10
2022-08-27T07:52:58.696Z,4.50
2022-08-27T07:55:21.661Z,4.50
2022-08-27T07:57:48.739Z,4.70
2022-08-27T08:00:13.289Z,4.80
2022-08-27T08:02:36.506Z,4.20
2022-08-27T08:04:59.809Z,4.80
2022-08-27T08:07:22.817Z,4.90
2022-08-27T08:09:47.992Z,4.90
2022-08-27T08:12:13.296Z,4.20
2022-08-27T08:14:38.682Z,4.90
2022-08-27T08:17:02.478Z,4.30
2022-08-27T08:19:25.915Z,4.70
2022-08-27T08:21:57.151Z,5.00
2022-08-27T08:24:28.415Z,5.10
2022-08-27T08:26:53.822Z,5.10
2022-08-27T08:29:19.028Z,5.00
2022-08-27T08:31:42.389Z,5.40
2022-08-27T08:34:10.053Z,5.00
2022-08-27T08:36:36.894Z,5.30
2022-08-27T08:39:02.403Z,4.90
2022-08-27T08:41:28.224Z,5.30
2022-08-27T08:43:56.058Z,4.90
2022-08-27T08:46:24.420Z,5.60
2022-08-27T08:48:51.725Z,5.40
2022-08-27T08:51:14.573Z,5.00
2022-08-27T08:53:37.219Z,5.90
2022-08-27T08:56:02.221Z,4.80
2022-08-27T08:58:32.443Z,6.00
2022-08-27T09:01:00.165Z,5.20
2022-08-27T09:03:23.728Z,4.90
2022-08-27T09:05:49.301Z,5.50
2022-08-27T09:08:41.559Z,5.00
2022-08-27T09:11:23.934Z,4.90
2022-08-27T09:13:49.954Z,5.70
2022-08-27T09:16:13.048Z,5.70
2022-08-27T09:18:37.502Z,5.50
2022-08-27T09:21:27.449Z,5.70
2022-08-27T09:24:25.667Z,5.60
2022-08-27T09:26:54.352Z,6.10
2022-08-27T09:29:21.605Z,5.60
2022-08-27T09:31:45.798Z,6.60
2022-08-27T09:34:09.870Z,5.70
2022-08-27T09:36:33.124Z,6.10
2022-08-27T09:38:59.251Z,5.90
2022-08-27T09:41:24.021Z,5.60
2022-08-27T09:43:56.728Z,5.60
2022-08-27T09:46:24.352Z,5.00
2022-08-27T09:48:52.462Z,6.30
2022-08-27T09:51:22.374Z,5.70
2022-08-27T09:53:59.461Z,5.20
2022-08-27T09:56:28.252Z,5.50
2022-08-27T09:58:56.321Z,5.50
2022-08-27T10:01:29.760Z,5.60
2022-08-27T10:04:19.209Z,5.40
2022-08-27T10:06:48.802Z,5.80
2022-08-27T10:09:17.839Z,5.20
2022-08-27T10:12:01.168Z,5.20
2022-08-27T10:14:28.377Z,5.50
2022-08-27T10:17:06.486Z,5.10
2022-08-27T10:19:31.385Z,5.30
2022-08-27T10:21:58.534Z,5.40
2022-08-27T10:24:28.449Z,5.10
2022-08-27T10:27:10.346Z,5.70
2022-08-27T10:29:50.399Z,5.30
2022-08-27T10:32:16.589Z,5.20
2022-08-27T10:35:16.755Z,5.10
2022-08-27T10:37:45.861Z,5.00
2022-08-27T10:40:24.017Z,5.30
2022-08-27T10:42:57.610Z,5.20
2022-08-27T10:45:32.187Z,4.60
2022-08-27T10:48:04.074Z,5.50
2022-08-27T10:50:49.255Z,6.40
2022-08-27T10:53:18.831Z,5.50
2022-08-27T10:55:43.214Z,4.50
2022-08-27T10:58:06.163Z,4.80
2022-08-27T11:00:34.597Z,5.00
2022-08-27T11:03:07.327Z,4.30
2022-08-27T11:05:34.790Z,4.00
2022-08-27T11:08:06.705Z,4.30
2022-08-27T11:10:31.442Z,3.40
2022-08-27T11:12:58.700Z,3.40
2022-08-27T11:15:25.744Z,3.10
2022-08-27T11:17:52.078Z,2.80
2022-08-27T11:20:27.293Z,3.00
2022-08-27T11:23:10.443Z,3.40
2022-08-27T11:25:38.964Z,3.50
2022-08-27T11:28:03.311Z,3.60
2022-08-27T11:30:32.001Z,3.20
2022-08-27T11:33:13.666Z,3.50
2022-08-27T11:35:43.292Z,4.00
2022-08-27T11:38:21.299Z,3.10
2022-08-27T11:40:44.099Z,3.20
2022-08-27T11:43:17.873Z,3.50
2022-08-27T11:45:53.304Z,3.50
2022-08-27T11:48:18.505Z,3.10
2022-08-27T11:50:41.557Z,3.50
2022-08-27T11:53:06.366Z,3.60
2022-08-27T11:55:31.971Z,4.20
2022-08-27T11:58:04.773Z,4.10
2022-08-27T12:00:27.601Z,4.00
2022-08-27T12:02:58.294Z,3.50
2022-08-27T12:05:25.785Z,4.20
2022-08-27T12:07:53.456Z,5.50
2022-08-27T12:10:25.520Z,4.90
2022-08-27T12:13:00.674Z,4.50
2022-08-27T12:15:42.966Z,4.70
2022-08-27T12:18:23.020Z,4.40
2022-08-27T12:20:52.731Z,4.60
2022-08-27T12:23:39.242Z,4.50
2022-08-27T12:26:25.433Z,5.30
2022-08-27T12:28:48.793Z,5.00
2022-08-27T12:31:13.960Z,5.00
2022-08-27T12:33:41.761Z,4.90
2022-08-27T12:36:11.002Z,5.30
2022-08-27T12:38:35.246Z,5.40
2022-08-27T12:41:09.092Z,5.70
2022-08-27T12:43:35.485Z,5.40
2022-08-27T12:45:58.232Z,5.00
2022-08-27T12:48:23.274Z,5.60
2022-08-27T12:50:51.000Z,6.60
2022-08-27T12:53:28.832Z,7.60
2022-08-27T12:55:51.854Z,6.60
2022-08-27T12:58:30.683Z,6.60
2022-08-27T13:00:59.082Z,6.50
2022-08-27T13:03:26.929Z,6.00
2022-08-27T13:05:57.156Z,6.00
2022-08-27T13:08:22.096Z,5.60
2022-08-27T13:10:47.256Z,6.30
2022-08-27T13:13:12.111Z,6.10
2022-08-27T13:15:38.079Z,6.80
2022-08-27T13:18:03.200Z,6.80
2022-08-27T13:20:26.541Z,7.10
2022-08-27T13:22:50.208Z,6.80
2022-08-27T13:25:30.078Z,7.30
2022-08-27T13:27:59.561Z,7.20
2022-08-27T13:30:35.874Z,6.00
2022-08-27T13:33:00.209Z,5.60
2022-08-27T13:35:25.721Z,5.90
2022-08-27T13:37:51.131Z,5.70
2022-08-27T13:40:48.591Z,5.70
2022-08-27T13:43:12.569Z,5.40
2022-08-27T13:45:38.284Z,5.80
2022-08-27T13:48:02.056Z,6.00
2022-08-27T13:50:27.261Z,6.70
2022-08-27T13:53:12.026Z,5.70
2022-08-27T13:55:35.721Z,5.60
2022-08-27T13:58:11.981Z,5.80
2022-08-27T14:00:36.958Z,6.00
2022-08-27T14:03:01.703Z,6.20
2022-08-27T14:05:24.602Z,5.50
2022-08-27T14:07:54.726Z,6.50
2022-08-27T14:10:17.922Z,6.20
2022-08-27T14:12:45.643Z,5.80
2022-08-27T14:15:27.437Z,6.70
2022-08-27T14:17:52.643Z,5.90
2022-08-27T14:20:18.772Z,6.20
2022-08-27T14:22:42.445Z,6.70
2022-08-27T14:25:06.110Z,6.80
2022-08-27T14:27:33.567Z,6.90
2022-08-27T14:29:59.181Z,6.50
2022-08-27T14:32:21.929Z,6.90
2022-08-27T14:34:45.904Z,6.50
2022-08-27T14:37:11.110Z,6.50
2022-08-27T14:39:34.235Z,6.10
2022-08-27T14:41:57.937Z,6.30
2022-08-27T14:44:20.888Z,6.60
2022-08-27T14:46:46.224Z,6.10
2022-08-27T14:49:15.086Z,6.60
2022-08-27T14:51:40.296Z,6.40
2022-08-27T14:54:03.553Z,6.10
2022-08-27T14:56:27.532Z,6.10
2022-08-27T14:58:53.862Z,6.70
2022-08-27T15:01:18.354Z,6.00
2022-08-27T15:03:44.784Z,6.20
2022-08-27T15:06:10.194Z,5.40
2022-08-27T15:08:33.041Z,6.30
2022-08-27T15:10:55.892Z,5.90
2022-08-27T15:13:18.945Z,5.40
2022-08-27T15:15:44.303Z,5.30
2022-08-27T15:18:07.887Z,5.50
2022-08-27T15:20:33.638Z,4.80
2022-08-27T15:22:56.488Z,4.90
2022-08-27T15:25:19.849Z,5.20
2022-08-27T15:27:47.645Z,4.60
2022-08-27T15:30:11.729Z,4.80
2022-08-27T15:32:35.931Z,4.80
2022-08-27T15:34:59.645Z,5.10
2022-08-27T15:37:22.950Z,5.20
2022-08-27T15:39:45.758Z,4.30
2022-08-27T15:42:10.961Z,4.90
2022-08-27T15:44:34.247Z,4.50
2022-08-27T15:46:57.234Z,5.10
2022-08-27T15:49:19.957Z,5.70
2022-08-27T15:51:45.021Z,5.00
2022-08-27T15:54:08.163Z,4.70
2022-08-27T15:56:34.453Z,4.90
2022-08-27T15:58:57.587Z,4.50
2022-08-27T16:01:26.827Z,4.90
2022-08-27T16:03:52.883Z,4.90
2022-08-27T16:06:19.359Z,4.50
2022-08-27T16:08:42.913Z,4.90
2022-08-27T16:11:05.552Z,4.20
2022-08-27T16:13:29.103Z,5.00
2022-08-27T16:15:52.082Z,5.00
2022-08-27T16:18:16.948Z,5.10
2022-08-27T16:20:40.412Z,5.10
2022-08-27T16:23:03.106Z,4.60
2022-08-27T16:25:26.573Z,5.00
2022-08-27T16:27:53.874Z,4.90
2022-08-27T16:30:17.537Z,4.40
2022-08-27T16:32:40.303Z,5.10
2022-08-27T16:35:03.782Z,5.40
2022-08-27T16:37:28.574Z,5.10
2022-08-27T16:39:51.304Z,5.20
2022-08-27T16:42:16.706Z,4.50
2022-08-27T16:44:39.305Z,4.90
2022-08-27T16:47:02.019Z,4.90
2022-08-27T16:49:43.239Z,4.60
2022-08-27T16:52:07.669Z,4.80
2022-08-27T16:54:30.521Z,4.70
2022-08-27T16:56:53.399Z,4.10
2022-08-27T16:59:16.621Z,4.50
2022-08-27T17:01:42.836Z,4.80
2022-08-27T17:04:11.247Z,4.10
2022-08-27T17:06:41.229Z,4.70
2022-08-27T17:09:05.999Z,4.80
2022-08-27T17:11:30.998Z,4.50
2022-08-27T17:13:55.387Z,5.00
2022-08-27T17:16:19.744Z,5.30
2022-08-27T17:18:43.101Z,4.60
2022-08-27T17:21:05.880Z,4.20
2022-08-27T17:23:28.579Z,5.00
2022-08-27T17:25:51.478Z,4.80
2022-08-27T17:28:14.289Z,5.50
2022-08-27T17:30:37.348Z,4.60
2022-08-27T17:33:00.251Z,5.00
2022-08-27T17:35:23.172Z,4.30
2022-08-27T17:37:45.763Z,4.70
2022-08-27T17:40:14.824Z,4.60
2022-08-27T17:42:38.069Z,4.80
2022-08-27T17:45:00.646Z,5.50
2022-08-27T17:47:25.038Z,4.90
2022-08-27T17:49:50.315Z,5.00
2022-08-27T17:52:15.172Z,5.10
2022-08-27T17:54:42.628Z,5.80
2022-08-27T17:57:10.610Z,5.40
2022-08-27T17:59:38.700Z,5.60
2022-08-27T18:02:01.555Z,5.40
2022-08-27T18:04:24.327Z,5.50
2022-08-27T18:06:47.047Z,5.50
2022-08-27T18:09:10.089Z,5.10
2022-08-27T18:11:35.305Z,4.90
2022-08-27T18:14:02.714Z,5.40
2022-08-27T18:16:30.168Z,5.00
2022-08-27T18:18:52.857Z,5.00
2022-08-27T18:21:25.606Z,4.90
2022-08-27T18:23:51.760Z,5.20
2022-08-27T18:26:19.152Z,5.50
2022-08-27T18:28:44.129Z,4.80
2022-08-27T18:31:10.269Z,4.40
2022-08-27T18:33:33.109Z,4.40
2022-08-27T18:35:55.739Z,4.10
2022-08-27T18:38:23.047Z,4.30
2022-08-27T18:40:49.430Z,4.20
2022-08-27T18:43:15.011Z,4.50
2022-08-27T18:45:38.160Z,4.10
2022-08-27T18:48:02.904Z,4.40
2022-08-27T18:50:26.282Z,4.10
2022-08-27T18:52:50.289Z,3.90
2022-08-27T18:55:16.506Z,4.20
2022-08-27T18:57:39.627Z,4.10
2022-08-27T19:00:02.887Z,4.10
2022-08-27T19:02:28.336Z,3.90
2022-08-27T19:04:51.394Z,3.80
2022-08-27T19:07:18.913Z,4.20
2022-08-27T19:09:41.501Z,3.70
2022-08-27T19:12:05.328Z,4.20
2022-08-27T19:14:30.492Z,4.10
2022-08-27T19:16:56.248Z,4.10
2022-08-27T19:19:21.706Z,3.90
2022-08-27T19:21:51.221Z,3.50
2022-08-27T19:24:14.323Z,3.80
2022-08-27T19:26:37.480Z,4.10
2022-08-27T19:29:00.141Z,3.80
2022-08-27T19:31:22.905Z,3.60
2022-08-27T19:33:45.765Z,4.30
2022-08-27T19:36:12.583Z,4.30
2022-08-27T19:38:41.457Z,4.20
2022-08-27T19:41:04.080Z,3.80
2022-08-27T19:43:29.274Z,4.20
2022-08-27T19:45:55.980Z,4.10
2022-08-27T19:48:19.542Z,4.60
2022-08-27T19:50:42.364Z,4.10
2022-08-27T19:53:07.770Z,3.70
2022-08-27T19:55:32.769Z,4.00
2022-08-27T19:57:55.938Z,4.30
2022-08-27T20:00:20.527Z,4.10
2022-08-27T20:02:43.193Z,4.10
2022-08-27T20:05:17.783Z,3.90
2022-08-27T20:07:41.105Z,4.40
2022-08-27T20:10:08.299Z,4.90
2022-08-27T20:12:34.053Z,5.20
2022-08-27T20:14:57.024Z,4.10
2022-08-27T20:17:22.113Z,4.90
2022-08-27T20:19:49.636Z,4.30
2022-08-27T20:22:12.308Z,5.00
2022-08-27T20:24:37.618Z,4.30
2022-08-27T20:27:00.221Z,5.20
2022-08-27T20:29:32.503Z,4.80
2022-08-27T20:31:55.871Z,5.00
2022-08-27T20:34:21.417Z,5.40
2022-08-27T20:36:45.596Z,5.10
2022-08-27T20:39:08.431Z,4.90
2022-08-27T20:41:31.737Z,4.80
2022-08-27T20:43:54.926Z,4.80
2022-08-27T20:46:19.427Z,5.50
2022-08-27T20:48:42.518Z,5.70
2022-08-27T20:51:05.374Z,5.40
2022-08-27T20:53:27.976Z,5.00
2022-08-27T20:55:51.228Z,5.20
2022-08-27T20:58:33.072Z,5.10
2022-08-27T21:00:56.817Z,5.60
2022-08-27T21:03:19.848Z,5.60
2022-08-27T21:05:47.204Z,5.10
2022-08-27T21:08:10.930Z,6.30
2022-08-27T21:10:36.612Z,5.30
2022-08-27T21:13:04.727Z,5.40
2022-08-27T21:15:28.125Z,5.80
2022-08-27T21:17:50.975Z,5.60
2022-08-27T21:20:14.644Z,5.80
2022-08-27T21:22:37.658Z,5.60
2022-08-27T21:25:03.517Z,5.40
2022-08-27T21:27:28.609Z,5.60
2022-08-27T21:29:51.298Z,5.60
2022-08-27T21:32:16.980Z,5.10
2022-08-27T21:34:39.930Z,6.40
2022-08-27T21:37:03.907Z,5.80
2022-08-27T21:39:26.501Z,5.80
2022-08-27T21:41:50.467Z,5.60
2022-08-27T21:44:16.046Z,6.60
2022-08-27T21:46:38.740Z,6.30
2022-08-27T21:49:04.403Z,6.10
2022-08-27T21:51:27.113Z,6.70
2022-08-27T21:53:49.796Z,6.60
2022-08-27T21:56:12.544Z,6.70
2022-08-27T21:58:35.244Z,6.20
2022-08-27T22:00:58.248Z,6.20
2022-08-27T22:03:22.823Z,7.30
2022-08-27T22:05:46.300Z,6.90
2022-08-27T22:08:10.187Z,6.50
2022-08-27T22:10:33.127Z,6.80
2022-08-27T22:12:59.111Z,6.60
2022-08-27T22:15:23.636Z,6.70
2022-08-27T22:17:51.139Z,6.30
2022-08-27T22:20:14.359Z,6.60
2022-08-27T22:22:37.577Z,6.00
2022-08-27T22:25:00.141Z,6.70
2022-08-27T22:27:25.285Z,6.80
2022-08-27T22:29:50.493Z,5.50
2022-08-27T22:32:13.144Z,6.50
2022-08-27T22:34:37.961Z,6.30
2022-08-27T22:37:01.229Z,6.50
2022-08-27T22:39:26.060Z,6.70
2022-08-27T22:41:51.288Z,6.10
2022-08-27T22:44:16.469Z,5.70
2022-08-27T22:46:39.191Z,5.70
2022-08-27T22:49:02.042Z,6.50
2022-08-27T22:51:25.044Z,6.50
2022-08-27T22:53:47.660Z,6.30
2022-08-27T22:56:10.478Z,5.10
2022-08-27T22:58:33.263Z,5.70
2022-08-27T23:00:55.905Z,6.80
2022-08-27T23:03:18.693Z,6.50
2022-08-27T23:05:42.205Z,6.40
2022-08-27T23:08:09.136Z,6.10
2022-08-27T23:10:31.813Z,6.00
2022-08-27T23:12:55.394Z,6.40
2022-08-27T23:15:21.621Z,5.80
2022-08-27T23:17:44.969Z,6.00
2022-08-27T23:20:08.739Z,6.20
2022-08-27T23:22:31.691Z,6.90
2022-08-27T23:25:13.486Z,7.00
2022-08-27T23:27:38.596Z,6.40
2022-08-27T23:30:02.183Z,7.00
2022-08-27T23:32:24.963Z,7.00
2022-08-27T23:34:50.133Z,6.40
2022-08-27T23:37:15.334Z,6.70
2022-08-27T23:39:40.569Z,7.20
2022-08-27T23:42:03.265Z,6.90
2022-08-27T23:44:29.495Z,6.30
2022-08-27T23:46:55.065Z,6.70
2022-08-27T23:49:17.858Z,7.30
2022-08-27T23:51:40.404Z,6.20
2022-08-27T23:54:03.077Z,7.50
2022-08-27T23:56:30.083Z,6.50
2022-08-27T23:58:52.983Z,6.00
